<?xml version="1.0" encoding="UTF-8"?>
<gpx xmlns="http://www.topografix.com/GPX/1/1" xmlns:gpsies="http://www.gpsies.com/GPX/1/0" creator="GPSies http://www.gpsies.com - GPSies Track" version="1.1" xmlns:xsi="http://www.w3.org/2001/XMLSchema-instance" xsi:schemaLocation="http://www.topografix.com/GPX/1/1 http://www.topografix.com/GPX/1/1/gpx.xsd http://www.gpsies.com/GPX/1/0 http://www.gpsies.com/gpsies.xsd">
  <metadata>
    <name>GPSies Track</name>
    <link href="http://www.gpsies.com/">
      <text>GPSies Track on GPSies.com</text>
    </link>
    <time>2017-10-07T16:34:37Z</time>
  </metadata>
  <trk>
    <name>GPSies Track on GPSies.com</name>
    <trkseg>
      <trkpt lat="54.11799300" lon="-2.39050500">
        <ele>161.00000</ele>
        <time>2010-01-01T00:00:00Z</time>
      </trkpt>
      <trkpt lat="54.11804300" lon="-2.39070400">
        <ele>161.00000</ele>
        <time>2010-01-01T00:00:12Z</time>
      </trkpt>
      <trkpt lat="54.11817600" lon="-2.39088000">
        <ele>162.00000</ele>
        <time>2010-01-01T00:00:29Z</time>
      </trkpt>
      <trkpt lat="54.11819200" lon="-2.39129800">
        <ele>161.00000</ele>
        <time>2010-01-01T00:00:54Z</time>
      </trkpt>
      <trkpt lat="54.11828400" lon="-2.39142800">
        <ele>161.00000</ele>
        <time>2010-01-01T00:01:06Z</time>
      </trkpt>
      <trkpt lat="54.11896600" lon="-2.39111600">
        <ele>171.00000</ele>
        <time>2010-01-01T00:02:16Z</time>
      </trkpt>
      <trkpt lat="54.11914000" lon="-2.39094300">
        <ele>173.00000</ele>
        <time>2010-01-01T00:02:36Z</time>
      </trkpt>
      <trkpt lat="54.11952100" lon="-2.39072600">
        <ele>174.00000</ele>
        <time>2010-01-01T00:03:17Z</time>
      </trkpt>
      <trkpt lat="54.11964100" lon="-2.39054000">
        <ele>175.00000</ele>
        <time>2010-01-01T00:03:33Z</time>
      </trkpt>
      <trkpt lat="54.11985500" lon="-2.39051300">
        <ele>174.00000</ele>
        <time>2010-01-01T00:03:54Z</time>
      </trkpt>
      <trkpt lat="54.12004100" lon="-2.39074500">
        <ele>170.00000</ele>
        <time>2010-01-01T00:04:17Z</time>
      </trkpt>
      <trkpt lat="54.12015000" lon="-2.39108200">
        <ele>167.00000</ele>
        <time>2010-01-01T00:04:40Z</time>
      </trkpt>
      <trkpt lat="54.12037200" lon="-2.39116500">
        <ele>166.00000</ele>
        <time>2010-01-01T00:05:03Z</time>
      </trkpt>
      <trkpt lat="54.12060000" lon="-2.39087300">
        <ele>168.00000</ele>
        <time>2010-01-01T00:05:31Z</time>
      </trkpt>
      <trkpt lat="54.12062500" lon="-2.39067000">
        <ele>169.00000</ele>
        <time>2010-01-01T00:05:43Z</time>
      </trkpt>
      <trkpt lat="54.12078300" lon="-2.39067400">
        <ele>171.00000</ele>
        <time>2010-01-01T00:05:59Z</time>
      </trkpt>
      <trkpt lat="54.12092200" lon="-2.39100100">
        <ele>172.00000</ele>
        <time>2010-01-01T00:06:23Z</time>
      </trkpt>
      <trkpt lat="54.12105300" lon="-2.39169300">
        <ele>169.00000</ele>
        <time>2010-01-01T00:07:06Z</time>
      </trkpt>
      <trkpt lat="54.12126700" lon="-2.39163000">
        <ele>172.00000</ele>
        <time>2010-01-01T00:07:27Z</time>
      </trkpt>
      <trkpt lat="54.12151600" lon="-2.39132400">
        <ele>178.00000</ele>
        <time>2010-01-01T00:07:58Z</time>
      </trkpt>
      <trkpt lat="54.12162900" lon="-2.39104900">
        <ele>182.00000</ele>
        <time>2010-01-01T00:08:18Z</time>
      </trkpt>
      <trkpt lat="54.12160400" lon="-2.39052500">
        <ele>185.00000</ele>
        <time>2010-01-01T00:08:48Z</time>
      </trkpt>
      <trkpt lat="54.12182500" lon="-2.38975700">
        <ele>191.00000</ele>
        <time>2010-01-01T00:09:39Z</time>
      </trkpt>
      <trkpt lat="54.12214400" lon="-2.38945200">
        <ele>200.00000</ele>
        <time>2010-01-01T00:10:15Z</time>
      </trkpt>
      <trkpt lat="54.12229200" lon="-2.38911100">
        <ele>203.00000</ele>
        <time>2010-01-01T00:10:40Z</time>
      </trkpt>
      <trkpt lat="54.12279600" lon="-2.38843800">
        <ele>212.00000</ele>
        <time>2010-01-01T00:11:44Z</time>
      </trkpt>
      <trkpt lat="54.12296900" lon="-2.38787900">
        <ele>216.00000</ele>
        <time>2010-01-01T00:12:21Z</time>
      </trkpt>
      <trkpt lat="54.12327800" lon="-2.38720600">
        <ele>220.00000</ele>
        <time>2010-01-01T00:13:11Z</time>
      </trkpt>
      <trkpt lat="54.12345900" lon="-2.38709100">
        <ele>224.00000</ele>
        <time>2010-01-01T00:13:31Z</time>
      </trkpt>
      <trkpt lat="54.12379600" lon="-2.38657200">
        <ele>229.00000</ele>
        <time>2010-01-01T00:14:16Z</time>
      </trkpt>
      <trkpt lat="54.12394400" lon="-2.38648900">
        <ele>231.00000</ele>
        <time>2010-01-01T00:14:32Z</time>
      </trkpt>
      <trkpt lat="54.12427100" lon="-2.38643300">
        <ele>231.00000</ele>
        <time>2010-01-01T00:15:05Z</time>
      </trkpt>
      <trkpt lat="54.12523100" lon="-2.38651600">
        <ele>239.00000</ele>
        <time>2010-01-01T00:16:41Z</time>
      </trkpt>
      <trkpt lat="54.12562100" lon="-2.38660600">
        <ele>242.00000</ele>
        <time>2010-01-01T00:17:20Z</time>
      </trkpt>
      <trkpt lat="54.12605200" lon="-2.38642200">
        <ele>243.00000</ele>
        <time>2010-01-01T00:18:05Z</time>
      </trkpt>
      <trkpt lat="54.12622500" lon="-2.38642400">
        <ele>245.00000</ele>
        <time>2010-01-01T00:18:22Z</time>
      </trkpt>
      <trkpt lat="54.12649800" lon="-2.38632900">
        <ele>247.00000</ele>
        <time>2010-01-01T00:18:50Z</time>
      </trkpt>
      <trkpt lat="54.12705300" lon="-2.38593700">
        <ele>253.00000</ele>
        <time>2010-01-01T00:19:50Z</time>
      </trkpt>
      <trkpt lat="54.12779600" lon="-2.38564100">
        <ele>258.00000</ele>
        <time>2010-01-01T00:21:06Z</time>
      </trkpt>
      <trkpt lat="54.12828900" lon="-2.38522300">
        <ele>260.00000</ele>
        <time>2010-01-01T00:22:01Z</time>
      </trkpt>
      <trkpt lat="54.12864600" lon="-2.38458800">
        <ele>261.00000</ele>
        <time>2010-01-01T00:22:53Z</time>
      </trkpt>
      <trkpt lat="54.12946700" lon="-2.38377100">
        <ele>269.00000</ele>
        <time>2010-01-01T00:24:28Z</time>
      </trkpt>
      <trkpt lat="54.13018200" lon="-2.38337000">
        <ele>268.00000</ele>
        <time>2010-01-01T00:25:43Z</time>
      </trkpt>
      <trkpt lat="54.13059500" lon="-2.38339500">
        <ele>273.00000</ele>
        <time>2010-01-01T00:26:25Z</time>
      </trkpt>
      <trkpt lat="54.13120300" lon="-2.38328100">
        <ele>278.00000</ele>
        <time>2010-01-01T00:27:26Z</time>
      </trkpt>
      <trkpt lat="54.13180400" lon="-2.38301200">
        <ele>281.00000</ele>
        <time>2010-01-01T00:28:28Z</time>
      </trkpt>
      <trkpt lat="54.13211300" lon="-2.38276300">
        <ele>282.00000</ele>
        <time>2010-01-01T00:29:02Z</time>
      </trkpt>
      <trkpt lat="54.13225200" lon="-2.38275700">
        <ele>284.00000</ele>
        <time>2010-01-01T00:29:16Z</time>
      </trkpt>
      <trkpt lat="54.13255400" lon="-2.38255600">
        <ele>285.00000</ele>
        <time>2010-01-01T00:29:49Z</time>
      </trkpt>
      <trkpt lat="54.13282300" lon="-2.38248000">
        <ele>287.00000</ele>
        <time>2010-01-01T00:30:16Z</time>
      </trkpt>
      <trkpt lat="54.13286600" lon="-2.38231100">
        <ele>285.00000</ele>
        <time>2010-01-01T00:30:27Z</time>
      </trkpt>
      <trkpt lat="54.13275800" lon="-2.38172000">
        <ele>279.00000</ele>
        <time>2010-01-01T00:31:03Z</time>
      </trkpt>
      <trkpt lat="54.13281200" lon="-2.38143500">
        <ele>275.00000</ele>
        <time>2010-01-01T00:31:21Z</time>
      </trkpt>
      <trkpt lat="54.13251500" lon="-2.38068700">
        <ele>259.00000</ele>
        <time>2010-01-01T00:32:14Z</time>
      </trkpt>
      <trkpt lat="54.13265600" lon="-2.37988300">
        <ele>248.00000</ele>
        <time>2010-01-01T00:33:03Z</time>
      </trkpt>
      <trkpt lat="54.13287600" lon="-2.37936400">
        <ele>244.00000</ele>
        <time>2010-01-01T00:33:40Z</time>
      </trkpt>
      <trkpt lat="54.13340700" lon="-2.37878900">
        <ele>248.00000</ele>
        <time>2010-01-01T00:34:43Z</time>
      </trkpt>
      <trkpt lat="54.13356100" lon="-2.37853400">
        <ele>248.00000</ele>
        <time>2010-01-01T00:35:05Z</time>
      </trkpt>
      <trkpt lat="54.13387400" lon="-2.37835100">
        <ele>250.00000</ele>
        <time>2010-01-01T00:35:38Z</time>
      </trkpt>
      <trkpt lat="54.13447800" lon="-2.37769700">
        <ele>257.00000</ele>
        <time>2010-01-01T00:36:50Z</time>
      </trkpt>
      <trkpt lat="54.13488300" lon="-2.37735400">
        <ele>260.00000</ele>
        <time>2010-01-01T00:37:35Z</time>
      </trkpt>
      <trkpt lat="54.13490700" lon="-2.37702000">
        <ele>258.00000</ele>
        <time>2010-01-01T00:37:55Z</time>
      </trkpt>
      <trkpt lat="54.13503400" lon="-2.37678700">
        <ele>258.00000</ele>
        <time>2010-01-01T00:38:13Z</time>
      </trkpt>
      <trkpt lat="54.13573300" lon="-2.37615200">
        <ele>264.00000</ele>
        <time>2010-01-01T00:39:32Z</time>
      </trkpt>
      <trkpt lat="54.13678700" lon="-2.37470700">
        <ele>272.00000</ele>
        <time>2010-01-01T00:41:48Z</time>
      </trkpt>
      <trkpt lat="54.13801500" lon="-2.37366400">
        <ele>280.00000</ele>
        <time>2010-01-01T00:44:05Z</time>
      </trkpt>
      <trkpt lat="54.13846000" lon="-2.37314100">
        <ele>282.00000</ele>
        <time>2010-01-01T00:44:59Z</time>
      </trkpt>
      <trkpt lat="54.13864900" lon="-2.37302800">
        <ele>283.00000</ele>
        <time>2010-01-01T00:45:19Z</time>
      </trkpt>
      <trkpt lat="54.13884600" lon="-2.37304900">
        <ele>286.00000</ele>
        <time>2010-01-01T00:45:39Z</time>
      </trkpt>
      <trkpt lat="54.13906600" lon="-2.37316500">
        <ele>290.00000</ele>
        <time>2010-01-01T00:46:02Z</time>
      </trkpt>
      <trkpt lat="54.13922900" lon="-2.37338700">
        <ele>295.00000</ele>
        <time>2010-01-01T00:46:23Z</time>
      </trkpt>
      <trkpt lat="54.13938700" lon="-2.37349800">
        <ele>297.00000</ele>
        <time>2010-01-01T00:46:40Z</time>
      </trkpt>
      <trkpt lat="54.13959000" lon="-2.37395400">
        <ele>305.00000</ele>
        <time>2010-01-01T00:47:13Z</time>
      </trkpt>
      <trkpt lat="54.13974700" lon="-2.37469900">
        <ele>315.00000</ele>
        <time>2010-01-01T00:48:00Z</time>
      </trkpt>
      <trkpt lat="54.13978600" lon="-2.37523300">
        <ele>323.00000</ele>
        <time>2010-01-01T00:48:31Z</time>
      </trkpt>
      <trkpt lat="54.14032100" lon="-2.37679600">
        <ele>342.00000</ele>
        <time>2010-01-01T00:50:18Z</time>
      </trkpt>
      <trkpt lat="54.14051200" lon="-2.37793800">
        <ele>349.00000</ele>
        <time>2010-01-01T00:51:27Z</time>
      </trkpt>
      <trkpt lat="54.14104000" lon="-2.37876100">
        <ele>351.00000</ele>
        <time>2010-01-01T00:52:39Z</time>
      </trkpt>
      <trkpt lat="54.14127100" lon="-2.37928500">
        <ele>355.00000</ele>
        <time>2010-01-01T00:53:17Z</time>
      </trkpt>
      <trkpt lat="54.14157700" lon="-2.37961500">
        <ele>357.00000</ele>
        <time>2010-01-01T00:53:53Z</time>
      </trkpt>
      <trkpt lat="54.14198600" lon="-2.38025500">
        <ele>361.00000</ele>
        <time>2010-01-01T00:54:49Z</time>
      </trkpt>
      <trkpt lat="54.14218000" lon="-2.38041600">
        <ele>362.00000</ele>
        <time>2010-01-01T00:55:11Z</time>
      </trkpt>
      <trkpt lat="54.14274500" lon="-2.38065400">
        <ele>368.00000</ele>
        <time>2010-01-01T00:56:09Z</time>
      </trkpt>
      <trkpt lat="54.14314700" lon="-2.38089300">
        <ele>371.00000</ele>
        <time>2010-01-01T00:56:51Z</time>
      </trkpt>
      <trkpt lat="54.14339900" lon="-2.38117400">
        <ele>373.00000</ele>
        <time>2010-01-01T00:57:21Z</time>
      </trkpt>
      <trkpt lat="54.14367800" lon="-2.38124600">
        <ele>377.00000</ele>
        <time>2010-01-01T00:57:50Z</time>
      </trkpt>
      <trkpt lat="54.14415000" lon="-2.38124400">
        <ele>383.00000</ele>
        <time>2010-01-01T00:58:37Z</time>
      </trkpt>
      <trkpt lat="54.14483900" lon="-2.38156000">
        <ele>389.00000</ele>
        <time>2010-01-01T00:59:48Z</time>
      </trkpt>
      <trkpt lat="54.14531100" lon="-2.38145900">
        <ele>391.00000</ele>
        <time>2010-01-01T01:00:36Z</time>
      </trkpt>
      <trkpt lat="54.14545300" lon="-2.38130200">
        <ele>391.00000</ele>
        <time>2010-01-01T01:00:53Z</time>
      </trkpt>
      <trkpt lat="54.14550100" lon="-2.38101600">
        <ele>393.00000</ele>
        <time>2010-01-01T01:01:10Z</time>
      </trkpt>
      <trkpt lat="54.14565400" lon="-2.38080400">
        <ele>394.00000</ele>
        <time>2010-01-01T01:01:30Z</time>
      </trkpt>
      <trkpt lat="54.14627600" lon="-2.38074700">
        <ele>396.00000</ele>
        <time>2010-01-01T01:02:32Z</time>
      </trkpt>
      <trkpt lat="54.14638600" lon="-2.38088800">
        <ele>396.00000</ele>
        <time>2010-01-01T01:02:46Z</time>
      </trkpt>
      <trkpt lat="54.14651300" lon="-2.38150700">
        <ele>396.00000</ele>
        <time>2010-01-01T01:03:25Z</time>
      </trkpt>
      <trkpt lat="54.14679900" lon="-2.38211300">
        <ele>399.00000</ele>
        <time>2010-01-01T01:04:10Z</time>
      </trkpt>
      <trkpt lat="54.14692500" lon="-2.38226900">
        <ele>400.00000</ele>
        <time>2010-01-01T01:04:26Z</time>
      </trkpt>
      <trkpt lat="54.14724500" lon="-2.38300800">
        <ele>401.00000</ele>
        <time>2010-01-01T01:05:20Z</time>
      </trkpt>
      <trkpt lat="54.14740000" lon="-2.38312800">
        <ele>401.00000</ele>
        <time>2010-01-01T01:05:37Z</time>
      </trkpt>
      <trkpt lat="54.14764700" lon="-2.38308100">
        <ele>403.00000</ele>
        <time>2010-01-01T01:06:02Z</time>
      </trkpt>
      <trkpt lat="54.14795500" lon="-2.38329600">
        <ele>404.00000</ele>
        <time>2010-01-01T01:06:35Z</time>
      </trkpt>
      <trkpt lat="54.14813400" lon="-2.38349700">
        <ele>405.00000</ele>
        <time>2010-01-01T01:06:56Z</time>
      </trkpt>
      <trkpt lat="54.14839700" lon="-2.38349400">
        <ele>406.00000</ele>
        <time>2010-01-01T01:07:23Z</time>
      </trkpt>
      <trkpt lat="54.14857500" lon="-2.38332500">
        <ele>406.00000</ele>
        <time>2010-01-01T01:07:43Z</time>
      </trkpt>
      <trkpt lat="54.14876900" lon="-2.38323700">
        <ele>406.00000</ele>
        <time>2010-01-01T01:08:03Z</time>
      </trkpt>
      <trkpt lat="54.14931200" lon="-2.38250600">
        <ele>407.00000</ele>
        <time>2010-01-01T01:09:12Z</time>
      </trkpt>
      <trkpt lat="54.14940600" lon="-2.38225200">
        <ele>407.00000</ele>
        <time>2010-01-01T01:09:30Z</time>
      </trkpt>
      <trkpt lat="54.14953000" lon="-2.38222300">
        <ele>406.00000</ele>
        <time>2010-01-01T01:09:42Z</time>
      </trkpt>
      <trkpt lat="54.14971200" lon="-2.38227800">
        <ele>405.00000</ele>
        <time>2010-01-01T01:10:01Z</time>
      </trkpt>
      <trkpt lat="54.14973100" lon="-2.38256000">
        <ele>404.00000</ele>
        <time>2010-01-01T01:10:18Z</time>
      </trkpt>
      <trkpt lat="54.14948600" lon="-2.38249000">
        <ele>405.00000</ele>
        <time>2010-01-01T01:10:42Z</time>
      </trkpt>
      <trkpt lat="54.14966200" lon="-2.38267700">
        <ele>404.00000</ele>
        <time>2010-01-01T01:11:03Z</time>
      </trkpt>
      <trkpt lat="54.14971600" lon="-2.38270500">
        <ele>404.00000</ele>
        <time>2010-01-01T01:11:09Z</time>
      </trkpt>
      <trkpt lat="54.14974600" lon="-2.38261200">
        <ele>404.00000</ele>
        <time>2010-01-01T01:11:15Z</time>
      </trkpt>
      <trkpt lat="54.14971500" lon="-2.38270200">
        <ele>404.00000</ele>
        <time>2010-01-01T01:11:21Z</time>
      </trkpt>
      <trkpt lat="54.14973700" lon="-2.38265100">
        <ele>404.00000</ele>
        <time>2010-01-01T01:11:25Z</time>
      </trkpt>
      <trkpt lat="54.14979400" lon="-2.38277200">
        <ele>404.00000</ele>
        <time>2010-01-01T01:11:34Z</time>
      </trkpt>
      <trkpt lat="54.14964100" lon="-2.38299800">
        <ele>406.00000</ele>
        <time>2010-01-01T01:11:54Z</time>
      </trkpt>
      <trkpt lat="54.14960000" lon="-2.38324900">
        <ele>409.00000</ele>
        <time>2010-01-01T01:12:09Z</time>
      </trkpt>
      <trkpt lat="54.14996200" lon="-2.38347900">
        <ele>412.00000</ele>
        <time>2010-01-01T01:12:48Z</time>
      </trkpt>
      <trkpt lat="54.15010300" lon="-2.38367300">
        <ele>415.00000</ele>
        <time>2010-01-01T01:13:06Z</time>
      </trkpt>
      <trkpt lat="54.15045200" lon="-2.38493800">
        <ele>420.00000</ele>
        <time>2010-01-01T01:14:28Z</time>
      </trkpt>
      <trkpt lat="54.15120100" lon="-2.38674200">
        <ele>436.00000</ele>
        <time>2010-01-01T01:16:38Z</time>
      </trkpt>
      <trkpt lat="54.15189500" lon="-2.38984300">
        <ele>463.00000</ele>
        <time>2010-01-01T01:19:52Z</time>
      </trkpt>
      <trkpt lat="54.15238900" lon="-2.39075100">
        <ele>481.00000</ele>
        <time>2010-01-01T01:21:05Z</time>
      </trkpt>
      <trkpt lat="54.15310500" lon="-2.39159100">
        <ele>501.00000</ele>
        <time>2010-01-01T01:22:32Z</time>
      </trkpt>
      <trkpt lat="54.15318600" lon="-2.39199200">
        <ele>508.00000</ele>
        <time>2010-01-01T01:22:57Z</time>
      </trkpt>
      <trkpt lat="54.15331200" lon="-2.39221600">
        <ele>514.00000</ele>
        <time>2010-01-01T01:23:15Z</time>
      </trkpt>
      <trkpt lat="54.15356900" lon="-2.39233800">
        <ele>520.00000</ele>
        <time>2010-01-01T01:23:42Z</time>
      </trkpt>
      <trkpt lat="54.15383200" lon="-2.39257500">
        <ele>529.00000</ele>
        <time>2010-01-01T01:24:11Z</time>
      </trkpt>
      <trkpt lat="54.15400100" lon="-2.39312900">
        <ele>540.00000</ele>
        <time>2010-01-01T01:24:48Z</time>
      </trkpt>
      <trkpt lat="54.15435600" lon="-2.39325500">
        <ele>550.00000</ele>
        <time>2010-01-01T01:25:24Z</time>
      </trkpt>
      <trkpt lat="54.15524300" lon="-2.39423200">
        <ele>592.00000</ele>
        <time>2010-01-01T01:27:10Z</time>
      </trkpt>
      <trkpt lat="54.15547900" lon="-2.39430800">
        <ele>600.00000</ele>
        <time>2010-01-01T01:27:34Z</time>
      </trkpt>
      <trkpt lat="54.15568700" lon="-2.39428700">
        <ele>606.00000</ele>
        <time>2010-01-01T01:27:55Z</time>
      </trkpt>
      <trkpt lat="54.15606700" lon="-2.39466900">
        <ele>620.00000</ele>
        <time>2010-01-01T01:28:39Z</time>
      </trkpt>
      <trkpt lat="54.15658800" lon="-2.39490200">
        <ele>628.00000</ele>
        <time>2010-01-01T01:29:33Z</time>
      </trkpt>
      <trkpt lat="54.15739300" lon="-2.39509300">
        <ele>634.00000</ele>
        <time>2010-01-01T01:30:54Z</time>
      </trkpt>
      <trkpt lat="54.15952100" lon="-2.39539400">
        <ele>631.00000</ele>
        <time>2010-01-01T01:34:28Z</time>
      </trkpt>
      <trkpt lat="54.15971400" lon="-2.39547500">
        <ele>633.00000</ele>
        <time>2010-01-01T01:34:48Z</time>
      </trkpt>
      <trkpt lat="54.16021900" lon="-2.39545400">
        <ele>637.00000</ele>
        <time>2010-01-01T01:35:38Z</time>
      </trkpt>
      <trkpt lat="54.16051400" lon="-2.39557300">
        <ele>642.00000</ele>
        <time>2010-01-01T01:36:09Z</time>
      </trkpt>
      <trkpt lat="54.16104700" lon="-2.39552800">
        <ele>652.00000</ele>
        <time>2010-01-01T01:37:02Z</time>
      </trkpt>
      <trkpt lat="54.16140500" lon="-2.39537100">
        <ele>657.00000</ele>
        <time>2010-01-01T01:37:39Z</time>
      </trkpt>
      <trkpt lat="54.16252100" lon="-2.39514900">
        <ele>665.00000</ele>
        <time>2010-01-01T01:39:32Z</time>
      </trkpt>
      <trkpt lat="54.16299800" lon="-2.39490400">
        <ele>667.00000</ele>
        <time>2010-01-01T01:40:21Z</time>
      </trkpt>
      <trkpt lat="54.16327200" lon="-2.39493200">
        <ele>668.00000</ele>
        <time>2010-01-01T01:40:49Z</time>
      </trkpt>
      <trkpt lat="54.16397300" lon="-2.39479900">
        <ele>675.00000</ele>
        <time>2010-01-01T01:41:59Z</time>
      </trkpt>
      <trkpt lat="54.16408600" lon="-2.39468700">
        <ele>676.00000</ele>
        <time>2010-01-01T01:42:13Z</time>
      </trkpt>
      <trkpt lat="54.16435900" lon="-2.39461700">
        <ele>682.00000</ele>
        <time>2010-01-01T01:42:40Z</time>
      </trkpt>
      <trkpt lat="54.16456900" lon="-2.39462400">
        <ele>686.00000</ele>
        <time>2010-01-01T01:43:01Z</time>
      </trkpt>
      <trkpt lat="54.16539500" lon="-2.39446700">
        <ele>702.00000</ele>
        <time>2010-01-01T01:44:24Z</time>
      </trkpt>
      <trkpt lat="54.16583800" lon="-2.39411400">
        <ele>703.00000</ele>
        <time>2010-01-01T01:45:13Z</time>
      </trkpt>
      <trkpt lat="54.16595400" lon="-2.39427900">
        <ele>707.00000</ele>
        <time>2010-01-01T01:45:28Z</time>
      </trkpt>
      <trkpt lat="54.16601300" lon="-2.39476200">
        <ele>713.00000</ele>
        <time>2010-01-01T01:45:57Z</time>
      </trkpt>
      <trkpt lat="54.16618700" lon="-2.39788100">
        <ele>724.00000</ele>
        <time>2010-01-01T01:49:01Z</time>
      </trkpt>
      <trkpt lat="54.16623100" lon="-2.39778600">
        <ele>724.00000</ele>
        <time>2010-01-01T01:49:08Z</time>
      </trkpt>
      <trkpt lat="54.16621300" lon="-2.39767100">
        <ele>725.00000</ele>
        <time>2010-01-01T01:49:15Z</time>
      </trkpt>
      <trkpt lat="54.16612800" lon="-2.39779000">
        <ele>724.00000</ele>
        <time>2010-01-01T01:49:26Z</time>
      </trkpt>
      <trkpt lat="54.16615100" lon="-2.39784700">
        <ele>724.00000</ele>
        <time>2010-01-01T01:49:30Z</time>
      </trkpt>
      <trkpt lat="54.16607800" lon="-2.39779000">
        <ele>724.00000</ele>
        <time>2010-01-01T01:49:38Z</time>
      </trkpt>
      <trkpt lat="54.16592200" lon="-2.39779300">
        <ele>722.00000</ele>
        <time>2010-01-01T01:49:54Z</time>
      </trkpt>
      <trkpt lat="54.16585300" lon="-2.39755000">
        <ele>721.00000</ele>
        <time>2010-01-01T01:50:09Z</time>
      </trkpt>
      <trkpt lat="54.16614000" lon="-2.39781500">
        <ele>724.00000</ele>
        <time>2010-01-01T01:50:42Z</time>
      </trkpt>
      <trkpt lat="54.16655700" lon="-2.39767600">
        <ele>723.00000</ele>
        <time>2010-01-01T01:51:25Z</time>
      </trkpt>
      <trkpt lat="54.16656700" lon="-2.39753700">
        <ele>723.00000</ele>
        <time>2010-01-01T01:51:33Z</time>
      </trkpt>
      <trkpt lat="54.16643200" lon="-2.39760400">
        <ele>724.00000</ele>
        <time>2010-01-01T01:51:47Z</time>
      </trkpt>
      <trkpt lat="54.16626400" lon="-2.39785100">
        <ele>724.00000</ele>
        <time>2010-01-01T01:52:09Z</time>
      </trkpt>
      <trkpt lat="54.16620100" lon="-2.39789200">
        <ele>724.00000</ele>
        <time>2010-01-01T01:52:16Z</time>
      </trkpt>
      <trkpt lat="54.16619500" lon="-2.39778400">
        <ele>724.00000</ele>
        <time>2010-01-01T01:52:22Z</time>
      </trkpt>
      <trkpt lat="54.16618700" lon="-2.39789500">
        <ele>724.00000</ele>
        <time>2010-01-01T01:52:29Z</time>
      </trkpt>
      <trkpt lat="54.16609400" lon="-2.39752600">
        <ele>724.00000</ele>
        <time>2010-01-01T01:52:52Z</time>
      </trkpt>
      <trkpt lat="54.16573900" lon="-2.39606400">
        <ele>716.00000</ele>
        <time>2010-01-01T01:54:25Z</time>
      </trkpt>
      <trkpt lat="54.16573600" lon="-2.39540400">
        <ele>714.00000</ele>
        <time>2010-01-01T01:55:04Z</time>
      </trkpt>
      <trkpt lat="54.16564700" lon="-2.39497400">
        <ele>711.00000</ele>
        <time>2010-01-01T01:55:30Z</time>
      </trkpt>
      <trkpt lat="54.16559100" lon="-2.39483000">
        <ele>709.00000</ele>
        <time>2010-01-01T01:55:40Z</time>
      </trkpt>
      <trkpt lat="54.16507500" lon="-2.39504800">
        <ele>703.00000</ele>
        <time>2010-01-01T01:56:34Z</time>
      </trkpt>
      <trkpt lat="54.16496400" lon="-2.39519100">
        <ele>702.00000</ele>
        <time>2010-01-01T01:56:48Z</time>
      </trkpt>
      <trkpt lat="54.16477800" lon="-2.39572500">
        <ele>702.00000</ele>
        <time>2010-01-01T01:57:24Z</time>
      </trkpt>
      <trkpt lat="54.16503300" lon="-2.39510700">
        <ele>702.00000</ele>
        <time>2010-01-01T01:58:08Z</time>
      </trkpt>
      <trkpt lat="54.16546600" lon="-2.39477900">
        <ele>707.00000</ele>
        <time>2010-01-01T01:58:56Z</time>
      </trkpt>
      <trkpt lat="54.16562600" lon="-2.39473500">
        <ele>709.00000</ele>
        <time>2010-01-01T01:59:12Z</time>
      </trkpt>
      <trkpt lat="54.16581100" lon="-2.39407700">
        <ele>701.00000</ele>
        <time>2010-01-01T01:59:55Z</time>
      </trkpt>
      <trkpt lat="54.16521800" lon="-2.39447300">
        <ele>698.00000</ele>
        <time>2010-01-01T02:00:58Z</time>
      </trkpt>
      <trkpt lat="54.16502300" lon="-2.39444000">
        <ele>693.00000</ele>
        <time>2010-01-01T02:01:18Z</time>
      </trkpt>
      <trkpt lat="54.16488600" lon="-2.39453800">
        <ele>692.00000</ele>
        <time>2010-01-01T02:01:33Z</time>
      </trkpt>
      <trkpt lat="54.16364900" lon="-2.39484800">
        <ele>670.00000</ele>
        <time>2010-01-01T02:03:38Z</time>
      </trkpt>
      <trkpt lat="54.16335400" lon="-2.39489900">
        <ele>668.00000</ele>
        <time>2010-01-01T02:04:08Z</time>
      </trkpt>
      <trkpt lat="54.16303300" lon="-2.39485700">
        <ele>666.00000</ele>
        <time>2010-01-01T02:04:40Z</time>
      </trkpt>
      <trkpt lat="54.16251400" lon="-2.39515600">
        <ele>665.00000</ele>
        <time>2010-01-01T02:05:35Z</time>
      </trkpt>
      <trkpt lat="54.16144200" lon="-2.39535900">
        <ele>657.00000</ele>
        <time>2010-01-01T02:07:23Z</time>
      </trkpt>
      <trkpt lat="54.16111400" lon="-2.39554400">
        <ele>653.00000</ele>
        <time>2010-01-01T02:07:57Z</time>
      </trkpt>
      <trkpt lat="54.16088400" lon="-2.39547500">
        <ele>649.00000</ele>
        <time>2010-01-01T02:08:21Z</time>
      </trkpt>
      <trkpt lat="54.16055800" lon="-2.39557900">
        <ele>642.00000</ele>
        <time>2010-01-01T02:08:54Z</time>
      </trkpt>
      <trkpt lat="54.16023100" lon="-2.39545500">
        <ele>637.00000</ele>
        <time>2010-01-01T02:09:27Z</time>
      </trkpt>
      <trkpt lat="54.15973100" lon="-2.39546700">
        <ele>633.00000</ele>
        <time>2010-01-01T02:10:17Z</time>
      </trkpt>
      <trkpt lat="54.15933200" lon="-2.39535300">
        <ele>630.00000</ele>
        <time>2010-01-01T02:10:58Z</time>
      </trkpt>
      <trkpt lat="54.15737900" lon="-2.39509100">
        <ele>634.00000</ele>
        <time>2010-01-01T02:14:14Z</time>
      </trkpt>
      <trkpt lat="54.15708300" lon="-2.39500800">
        <ele>633.00000</ele>
        <time>2010-01-01T02:14:44Z</time>
      </trkpt>
      <trkpt lat="54.15693500" lon="-2.39500000">
        <ele>632.00000</ele>
        <time>2010-01-01T02:14:59Z</time>
      </trkpt>
      <trkpt lat="54.15667900" lon="-2.39515000">
        <ele>632.00000</ele>
        <time>2010-01-01T02:15:26Z</time>
      </trkpt>
      <trkpt lat="54.15648200" lon="-2.39515800">
        <ele>630.00000</ele>
        <time>2010-01-01T02:15:46Z</time>
      </trkpt>
      <trkpt lat="54.15630700" lon="-2.39523700">
        <ele>628.00000</ele>
        <time>2010-01-01T02:16:04Z</time>
      </trkpt>
      <trkpt lat="54.15608200" lon="-2.39554800">
        <ele>626.00000</ele>
        <time>2010-01-01T02:16:33Z</time>
      </trkpt>
      <trkpt lat="54.15595300" lon="-2.39548900">
        <ele>623.00000</ele>
        <time>2010-01-01T02:16:46Z</time>
      </trkpt>
      <trkpt lat="54.15596400" lon="-2.39543000">
        <ele>623.00000</ele>
        <time>2010-01-01T02:16:50Z</time>
      </trkpt>
      <trkpt lat="54.15592400" lon="-2.39547000">
        <ele>622.00000</ele>
        <time>2010-01-01T02:16:54Z</time>
      </trkpt>
      <trkpt lat="54.15589500" lon="-2.39574000">
        <ele>619.00000</ele>
        <time>2010-01-01T02:17:10Z</time>
      </trkpt>
      <trkpt lat="54.15569200" lon="-2.39599900">
        <ele>612.00000</ele>
        <time>2010-01-01T02:17:36Z</time>
      </trkpt>
      <trkpt lat="54.15544500" lon="-2.39608000">
        <ele>606.00000</ele>
        <time>2010-01-01T02:18:01Z</time>
      </trkpt>
      <trkpt lat="54.15535200" lon="-2.39603600">
        <ele>604.00000</ele>
        <time>2010-01-01T02:18:11Z</time>
      </trkpt>
      <trkpt lat="54.15511800" lon="-2.39620200">
        <ele>599.00000</ele>
        <time>2010-01-01T02:18:36Z</time>
      </trkpt>
      <trkpt lat="54.15474400" lon="-2.39627200">
        <ele>592.00000</ele>
        <time>2010-01-01T02:19:14Z</time>
      </trkpt>
      <trkpt lat="54.15448600" lon="-2.39655800">
        <ele>586.00000</ele>
        <time>2010-01-01T02:19:44Z</time>
      </trkpt>
      <trkpt lat="54.15410400" lon="-2.39674600">
        <ele>578.00000</ele>
        <time>2010-01-01T02:20:24Z</time>
      </trkpt>
      <trkpt lat="54.15371000" lon="-2.39711100">
        <ele>567.00000</ele>
        <time>2010-01-01T02:21:09Z</time>
      </trkpt>
      <trkpt lat="54.15312700" lon="-2.39753300">
        <ele>553.00000</ele>
        <time>2010-01-01T02:22:12Z</time>
      </trkpt>
      <trkpt lat="54.15272300" lon="-2.39766000">
        <ele>546.00000</ele>
        <time>2010-01-01T02:22:53Z</time>
      </trkpt>
      <trkpt lat="54.15235500" lon="-2.39806700">
        <ele>540.00000</ele>
        <time>2010-01-01T02:23:37Z</time>
      </trkpt>
      <trkpt lat="54.15230100" lon="-2.39819900">
        <ele>539.00000</ele>
        <time>2010-01-01T02:23:47Z</time>
      </trkpt>
      <trkpt lat="54.15215200" lon="-2.39818300">
        <ele>536.00000</ele>
        <time>2010-01-01T02:24:02Z</time>
      </trkpt>
      <trkpt lat="54.15206200" lon="-2.39828300">
        <ele>534.00000</ele>
        <time>2010-01-01T02:24:12Z</time>
      </trkpt>
      <trkpt lat="54.15122800" lon="-2.39849200">
        <ele>517.00000</ele>
        <time>2010-01-01T02:25:37Z</time>
      </trkpt>
      <trkpt lat="54.15108500" lon="-2.39862000">
        <ele>514.00000</ele>
        <time>2010-01-01T02:25:53Z</time>
      </trkpt>
      <trkpt lat="54.15082800" lon="-2.39859100">
        <ele>511.00000</ele>
        <time>2010-01-01T02:26:19Z</time>
      </trkpt>
      <trkpt lat="54.15027300" lon="-2.39879700">
        <ele>503.00000</ele>
        <time>2010-01-01T02:27:16Z</time>
      </trkpt>
      <trkpt lat="54.14998700" lon="-2.39874200">
        <ele>498.00000</ele>
        <time>2010-01-01T02:27:44Z</time>
      </trkpt>
      <trkpt lat="54.14939200" lon="-2.39894900">
        <ele>488.00000</ele>
        <time>2010-01-01T02:28:45Z</time>
      </trkpt>
      <trkpt lat="54.14918500" lon="-2.39909300">
        <ele>485.00000</ele>
        <time>2010-01-01T02:29:07Z</time>
      </trkpt>
      <trkpt lat="54.14884200" lon="-2.39916600">
        <ele>483.00000</ele>
        <time>2010-01-01T02:29:42Z</time>
      </trkpt>
      <trkpt lat="54.14869000" lon="-2.39942600">
        <ele>481.00000</ele>
        <time>2010-01-01T02:30:04Z</time>
      </trkpt>
      <trkpt lat="54.14852500" lon="-2.39956100">
        <ele>480.00000</ele>
        <time>2010-01-01T02:30:22Z</time>
      </trkpt>
      <trkpt lat="54.14813800" lon="-2.40018900">
        <ele>475.00000</ele>
        <time>2010-01-01T02:31:15Z</time>
      </trkpt>
      <trkpt lat="54.14800000" lon="-2.40020900">
        <ele>473.00000</ele>
        <time>2010-01-01T02:31:29Z</time>
      </trkpt>
      <trkpt lat="54.14778800" lon="-2.40037700">
        <ele>469.00000</ele>
        <time>2010-01-01T02:31:53Z</time>
      </trkpt>
      <trkpt lat="54.14730500" lon="-2.40052300">
        <ele>462.00000</ele>
        <time>2010-01-01T02:32:42Z</time>
      </trkpt>
      <trkpt lat="54.14692200" lon="-2.40076200">
        <ele>458.00000</ele>
        <time>2010-01-01T02:33:23Z</time>
      </trkpt>
      <trkpt lat="54.14661500" lon="-2.40069700">
        <ele>454.00000</ele>
        <time>2010-01-01T02:33:53Z</time>
      </trkpt>
      <trkpt lat="54.14565300" lon="-2.40100700">
        <ele>443.00000</ele>
        <time>2010-01-01T02:35:31Z</time>
      </trkpt>
      <trkpt lat="54.14553800" lon="-2.40131700">
        <ele>443.00000</ele>
        <time>2010-01-01T02:35:53Z</time>
      </trkpt>
      <trkpt lat="54.14558600" lon="-2.40145900">
        <ele>444.00000</ele>
        <time>2010-01-01T02:36:03Z</time>
      </trkpt>
      <trkpt lat="54.14570400" lon="-2.40150800">
        <ele>444.00000</ele>
        <time>2010-01-01T02:36:15Z</time>
      </trkpt>
      <trkpt lat="54.14553700" lon="-2.40143000">
        <ele>444.00000</ele>
        <time>2010-01-01T02:36:32Z</time>
      </trkpt>
      <trkpt lat="54.14556700" lon="-2.40129000">
        <ele>443.00000</ele>
        <time>2010-01-01T02:36:41Z</time>
      </trkpt>
      <trkpt lat="54.14552400" lon="-2.40128700">
        <ele>443.00000</ele>
        <time>2010-01-01T02:36:45Z</time>
      </trkpt>
      <trkpt lat="54.14559800" lon="-2.40127100">
        <ele>443.00000</ele>
        <time>2010-01-01T02:36:53Z</time>
      </trkpt>
      <trkpt lat="54.14554900" lon="-2.40123000">
        <ele>443.00000</ele>
        <time>2010-01-01T02:36:58Z</time>
      </trkpt>
      <trkpt lat="54.14553500" lon="-2.40127200">
        <ele>443.00000</ele>
        <time>2010-01-01T02:37:01Z</time>
      </trkpt>
      <trkpt lat="54.14543700" lon="-2.40113700">
        <ele>443.00000</ele>
        <time>2010-01-01T02:37:13Z</time>
      </trkpt>
      <trkpt lat="54.14525900" lon="-2.40132100">
        <ele>443.00000</ele>
        <time>2010-01-01T02:37:34Z</time>
      </trkpt>
      <trkpt lat="54.14492200" lon="-2.40144100">
        <ele>442.00000</ele>
        <time>2010-01-01T02:38:09Z</time>
      </trkpt>
      <trkpt lat="54.14477900" lon="-2.40164900">
        <ele>441.00000</ele>
        <time>2010-01-01T02:38:28Z</time>
      </trkpt>
      <trkpt lat="54.14455900" lon="-2.40164500">
        <ele>439.00000</ele>
        <time>2010-01-01T02:38:50Z</time>
      </trkpt>
      <trkpt lat="54.14418800" lon="-2.40188100">
        <ele>435.00000</ele>
        <time>2010-01-01T02:39:29Z</time>
      </trkpt>
      <trkpt lat="54.14400700" lon="-2.40214400">
        <ele>433.00000</ele>
        <time>2010-01-01T02:39:53Z</time>
      </trkpt>
      <trkpt lat="54.14382200" lon="-2.40228800">
        <ele>431.00000</ele>
        <time>2010-01-01T02:40:13Z</time>
      </trkpt>
      <trkpt lat="54.14346100" lon="-2.40238800">
        <ele>429.00000</ele>
        <time>2010-01-01T02:40:50Z</time>
      </trkpt>
      <trkpt lat="54.14312000" lon="-2.40258100">
        <ele>430.00000</ele>
        <time>2010-01-01T02:41:26Z</time>
      </trkpt>
      <trkpt lat="54.14281100" lon="-2.40244300">
        <ele>427.00000</ele>
        <time>2010-01-01T02:41:58Z</time>
      </trkpt>
      <trkpt lat="54.14243000" lon="-2.40251300">
        <ele>425.00000</ele>
        <time>2010-01-01T02:42:36Z</time>
      </trkpt>
      <trkpt lat="54.14230800" lon="-2.40264700">
        <ele>423.00000</ele>
        <time>2010-01-01T02:42:51Z</time>
      </trkpt>
      <trkpt lat="54.14204400" lon="-2.40274600">
        <ele>420.00000</ele>
        <time>2010-01-01T02:43:18Z</time>
      </trkpt>
      <trkpt lat="54.14170000" lon="-2.40303700">
        <ele>417.00000</ele>
        <time>2010-01-01T02:43:56Z</time>
      </trkpt>
      <trkpt lat="54.14125600" lon="-2.40303400">
        <ele>412.00000</ele>
        <time>2010-01-01T02:44:41Z</time>
      </trkpt>
      <trkpt lat="54.14088600" lon="-2.40345300">
        <ele>409.00000</ele>
        <time>2010-01-01T02:45:25Z</time>
      </trkpt>
      <trkpt lat="54.14050500" lon="-2.40359000">
        <ele>406.00000</ele>
        <time>2010-01-01T02:46:04Z</time>
      </trkpt>
      <trkpt lat="54.14025000" lon="-2.40384400">
        <ele>404.00000</ele>
        <time>2010-01-01T02:46:34Z</time>
      </trkpt>
      <trkpt lat="54.14009500" lon="-2.40391700">
        <ele>401.00000</ele>
        <time>2010-01-01T02:46:50Z</time>
      </trkpt>
      <trkpt lat="54.13994200" lon="-2.40416800">
        <ele>399.00000</ele>
        <time>2010-01-01T02:47:11Z</time>
      </trkpt>
      <trkpt lat="54.13954800" lon="-2.40445100">
        <ele>393.00000</ele>
        <time>2010-01-01T02:47:54Z</time>
      </trkpt>
      <trkpt lat="54.13932000" lon="-2.40472100">
        <ele>391.00000</ele>
        <time>2010-01-01T02:48:21Z</time>
      </trkpt>
      <trkpt lat="54.13865700" lon="-2.40514000">
        <ele>380.00000</ele>
        <time>2010-01-01T02:49:32Z</time>
      </trkpt>
      <trkpt lat="54.13830700" lon="-2.40554900">
        <ele>377.00000</ele>
        <time>2010-01-01T02:50:15Z</time>
      </trkpt>
      <trkpt lat="54.13777800" lon="-2.40596000">
        <ele>368.00000</ele>
        <time>2010-01-01T02:51:13Z</time>
      </trkpt>
      <trkpt lat="54.13721100" lon="-2.40699800">
        <ele>356.00000</ele>
        <time>2010-01-01T02:52:36Z</time>
      </trkpt>
      <trkpt lat="54.13693200" lon="-2.40723100">
        <ele>351.00000</ele>
        <time>2010-01-01T02:53:07Z</time>
      </trkpt>
      <trkpt lat="54.13663000" lon="-2.40759600">
        <ele>345.00000</ele>
        <time>2010-01-01T02:53:44Z</time>
      </trkpt>
      <trkpt lat="54.13633600" lon="-2.40774200">
        <ele>340.00000</ele>
        <time>2010-01-01T02:54:15Z</time>
      </trkpt>
      <trkpt lat="54.13617300" lon="-2.40799200">
        <ele>337.00000</ele>
        <time>2010-01-01T02:54:37Z</time>
      </trkpt>
      <trkpt lat="54.13603600" lon="-2.40807000">
        <ele>335.00000</ele>
        <time>2010-01-01T02:54:51Z</time>
      </trkpt>
      <trkpt lat="54.13592900" lon="-2.40799500">
        <ele>334.00000</ele>
        <time>2010-01-01T02:55:03Z</time>
      </trkpt>
      <trkpt lat="54.13580400" lon="-2.40800900">
        <ele>332.00000</ele>
        <time>2010-01-01T02:55:15Z</time>
      </trkpt>
      <trkpt lat="54.13535800" lon="-2.40840100">
        <ele>324.00000</ele>
        <time>2010-01-01T02:56:05Z</time>
      </trkpt>
      <trkpt lat="54.13477800" lon="-2.40875900">
        <ele>312.00000</ele>
        <time>2010-01-01T02:57:07Z</time>
      </trkpt>
      <trkpt lat="54.13469200" lon="-2.40880500">
        <ele>311.00000</ele>
        <time>2010-01-01T02:57:16Z</time>
      </trkpt>
      <trkpt lat="54.13457000" lon="-2.40875400">
        <ele>308.00000</ele>
        <time>2010-01-01T02:57:29Z</time>
      </trkpt>
      <trkpt lat="54.13446200" lon="-2.40877800">
        <ele>306.00000</ele>
        <time>2010-01-01T02:57:40Z</time>
      </trkpt>
      <trkpt lat="54.13425400" lon="-2.40908100">
        <ele>302.00000</ele>
        <time>2010-01-01T02:58:07Z</time>
      </trkpt>
      <trkpt lat="54.13412600" lon="-2.40906600">
        <ele>300.00000</ele>
        <time>2010-01-01T02:58:20Z</time>
      </trkpt>
      <trkpt lat="54.13384100" lon="-2.40885800">
        <ele>297.00000</ele>
        <time>2010-01-01T02:58:51Z</time>
      </trkpt>
      <trkpt lat="54.13358400" lon="-2.40898600">
        <ele>292.00000</ele>
        <time>2010-01-01T02:59:18Z</time>
      </trkpt>
      <trkpt lat="54.13310900" lon="-2.40936400">
        <ele>283.00000</ele>
        <time>2010-01-01T03:00:10Z</time>
      </trkpt>
      <trkpt lat="54.13297200" lon="-2.40960600">
        <ele>281.00000</ele>
        <time>2010-01-01T03:00:30Z</time>
      </trkpt>
      <trkpt lat="54.13286000" lon="-2.40999400">
        <ele>278.00000</ele>
        <time>2010-01-01T03:00:55Z</time>
      </trkpt>
      <trkpt lat="54.13277700" lon="-2.41009200">
        <ele>276.00000</ele>
        <time>2010-01-01T03:01:05Z</time>
      </trkpt>
      <trkpt lat="54.13267400" lon="-2.41009100">
        <ele>274.00000</ele>
        <time>2010-01-01T03:01:16Z</time>
      </trkpt>
      <trkpt lat="54.13250100" lon="-2.41047400">
        <ele>268.00000</ele>
        <time>2010-01-01T03:01:44Z</time>
      </trkpt>
      <trkpt lat="54.13139600" lon="-2.41133900">
        <ele>242.00000</ele>
        <time>2010-01-01T03:03:46Z</time>
      </trkpt>
      <trkpt lat="54.13103000" lon="-2.41133100">
        <ele>233.00000</ele>
        <time>2010-01-01T03:04:22Z</time>
      </trkpt>
      <trkpt lat="54.13094900" lon="-2.41127800">
        <ele>231.00000</ele>
        <time>2010-01-01T03:04:31Z</time>
      </trkpt>
      <trkpt lat="54.13051600" lon="-2.41132200">
        <ele>224.00000</ele>
        <time>2010-01-01T03:05:14Z</time>
      </trkpt>
      <trkpt lat="54.13015400" lon="-2.41127500">
        <ele>220.00000</ele>
        <time>2010-01-01T03:05:51Z</time>
      </trkpt>
      <trkpt lat="54.13003100" lon="-2.41139000">
        <ele>219.00000</ele>
        <time>2010-01-01T03:06:05Z</time>
      </trkpt>
      <trkpt lat="54.12995900" lon="-2.41135000">
        <ele>218.00000</ele>
        <time>2010-01-01T03:06:12Z</time>
      </trkpt>
      <trkpt lat="54.12990400" lon="-2.41146700">
        <ele>218.00000</ele>
        <time>2010-01-01T03:06:21Z</time>
      </trkpt>
      <trkpt lat="54.12992800" lon="-2.41123100">
        <ele>217.00000</ele>
        <time>2010-01-01T03:06:35Z</time>
      </trkpt>
      <trkpt lat="54.12917300" lon="-2.40808400">
        <ele>216.00000</ele>
        <time>2010-01-01T03:09:55Z</time>
      </trkpt>
      <trkpt lat="54.12877400" lon="-2.40678000">
        <ele>218.00000</ele>
        <time>2010-01-01T03:11:21Z</time>
      </trkpt>
      <trkpt lat="54.12781100" lon="-2.40420900">
        <ele>218.00000</ele>
        <time>2010-01-01T03:14:20Z</time>
      </trkpt>
      <trkpt lat="54.12692300" lon="-2.40276500">
        <ele>215.00000</ele>
        <time>2010-01-01T03:16:22Z</time>
      </trkpt>
      <trkpt lat="54.12638900" lon="-2.40233100">
        <ele>214.00000</ele>
        <time>2010-01-01T03:17:22Z</time>
      </trkpt>
      <trkpt lat="54.12615900" lon="-2.40205700">
        <ele>214.00000</ele>
        <time>2010-01-01T03:17:50Z</time>
      </trkpt>
      <trkpt lat="54.12594400" lon="-2.40164300">
        <ele>215.00000</ele>
        <time>2010-01-01T03:18:22Z</time>
      </trkpt>
      <trkpt lat="54.12567600" lon="-2.40086400">
        <ele>214.00000</ele>
        <time>2010-01-01T03:19:15Z</time>
      </trkpt>
      <trkpt lat="54.12491800" lon="-2.39933700">
        <ele>204.00000</ele>
        <time>2010-01-01T03:21:13Z</time>
      </trkpt>
      <trkpt lat="54.12469100" lon="-2.39853400">
        <ele>203.00000</ele>
        <time>2010-01-01T03:22:05Z</time>
      </trkpt>
      <trkpt lat="54.12438700" lon="-2.39811300">
        <ele>199.00000</ele>
        <time>2010-01-01T03:22:44Z</time>
      </trkpt>
      <trkpt lat="54.12408700" lon="-2.39739600">
        <ele>197.00000</ele>
        <time>2010-01-01T03:23:36Z</time>
      </trkpt>
      <trkpt lat="54.12366500" lon="-2.39684200">
        <ele>189.00000</ele>
        <time>2010-01-01T03:24:29Z</time>
      </trkpt>
      <trkpt lat="54.12331600" lon="-2.39619000">
        <ele>184.00000</ele>
        <time>2010-01-01T03:25:21Z</time>
      </trkpt>
      <trkpt lat="54.12247300" lon="-2.39578600">
        <ele>175.00000</ele>
        <time>2010-01-01T03:26:48Z</time>
      </trkpt>
      <trkpt lat="54.12217600" lon="-2.39541000">
        <ele>175.00000</ele>
        <time>2010-01-01T03:27:25Z</time>
      </trkpt>
      <trkpt lat="54.12168600" lon="-2.39458700">
        <ele>174.00000</ele>
        <time>2010-01-01T03:28:34Z</time>
      </trkpt>
      <trkpt lat="54.12145800" lon="-2.39378900">
        <ele>170.00000</ele>
        <time>2010-01-01T03:29:26Z</time>
      </trkpt>
      <trkpt lat="54.12086300" lon="-2.39072400">
        <ele>172.00000</ele>
        <time>2010-01-01T03:32:36Z</time>
      </trkpt>
      <trkpt lat="54.12079700" lon="-2.39069800">
        <ele>171.00000</ele>
        <time>2010-01-01T03:32:42Z</time>
      </trkpt>
      <trkpt lat="54.12068800" lon="-2.39077600">
        <ele>169.00000</ele>
        <time>2010-01-01T03:32:54Z</time>
      </trkpt>
      <trkpt lat="54.12043200" lon="-2.39112300">
        <ele>166.00000</ele>
        <time>2010-01-01T03:33:27Z</time>
      </trkpt>
      <trkpt lat="54.12027700" lon="-2.39123400">
        <ele>166.00000</ele>
        <time>2010-01-01T03:33:44Z</time>
      </trkpt>
      <trkpt lat="54.12002400" lon="-2.39067200">
        <ele>171.00000</ele>
        <time>2010-01-01T03:34:25Z</time>
      </trkpt>
      <trkpt lat="54.11979500" lon="-2.39050500">
        <ele>174.00000</ele>
        <time>2010-01-01T03:34:50Z</time>
      </trkpt>
      <trkpt lat="54.11920200" lon="-2.39094400">
        <ele>173.00000</ele>
        <time>2010-01-01T03:35:55Z</time>
      </trkpt>
      <trkpt lat="54.11856900" lon="-2.39119600">
        <ele>165.00000</ele>
        <time>2010-01-01T03:37:00Z</time>
      </trkpt>
      <trkpt lat="54.11834900" lon="-2.39143100">
        <ele>161.00000</ele>
        <time>2010-01-01T03:37:26Z</time>
      </trkpt>
      <trkpt lat="54.11782100" lon="-2.39150300">
        <ele>160.00000</ele>
        <time>2010-01-01T03:38:19Z</time>
      </trkpt>
      <trkpt lat="54.11748000" lon="-2.39166900">
        <ele>158.00000</ele>
        <time>2010-01-01T03:38:54Z</time>
      </trkpt>
    </trkseg>
  </trk>
</gpx>

